createdAt,value
2023-05-22T00:00:18.070Z,15.9334
2023-05-22T00:01:19.896Z,16.0057
2023-05-22T00:02:22.168Z,15.9248
2023-05-22T00:03:23.345Z,15.8708
2023-05-22T00:04:25.318Z,15.8933
2023-05-22T00:05:27.283Z,15.8383
2023-05-22T00:07:29.177Z,15.9707
2023-05-22T00:10:32.212Z,15.8675
2023-05-22T00:11:34.266Z,15.8107
2023-05-22T00:16:40.560Z,15.5445
2023-05-22T00:17:40.879Z,15.6875
2023-05-22T00:18:42.112Z,15.5030
2023-05-22T00:19:43.983Z,15.1984
2023-05-22T00:20:45.204Z,15.2731
2023-05-22T00:21:47.427Z,15.0863
2023-05-22T00:22:48.670Z,14.9011
2023-05-22T00:23:50.306Z,14.7505
2023-05-22T00:24:51.495Z,14.6624
2023-05-22T00:25:52.433Z,14.6209
2023-05-22T00:26:54.325Z,14.5190
2023-05-22T00:28:07.312Z,14.3659
2023-05-22T00:29:27.852Z,14.2153
2023-05-22T00:30:28.489Z,14.1913
2023-05-22T00:31:31.320Z,14.0888
2023-05-22T00:34:35.448Z,13.9873
2023-05-22T00:35:35.649Z,13.9705
2023-05-22T00:37:38.550Z,13.9258
2023-05-22T00:38:40.368Z,13.8737
2023-05-22T00:39:42.605Z,13.9196
2023-05-22T00:40:43.806Z,13.8901
2023-05-22T00:48:30.617Z,13.8274
2023-05-22T00:49:31.210Z,13.8269
2023-05-22T00:50:31.607Z,13.9457
2023-05-22T00:51:35.738Z,14.0650
2023-05-22T00:58:41.915Z,14.4108
2023-05-22T00:59:44.082Z,14.5228
2023-05-22T01:00:44.670Z,14.4356
2023-05-22T01:01:46.831Z,14.4224
2023-05-22T01:09:25.029Z,14.5777
2023-05-22T01:10:25.664Z,14.4933
2023-05-22T01:11:27.488Z,14.6777
2023-05-22T01:12:28.849Z,14.5846
2023-05-22T01:13:30.093Z,14.5460
2023-05-22T01:16:02.539Z,14.6765
2023-05-22T01:17:03.789Z,14.6802
2023-05-22T01:19:06.685Z,14.7017
2023-05-22T01:20:08.670Z,14.6344
2023-05-22T01:21:09.040Z,14.5579
2023-05-22T01:22:10.274Z,14.2978
2023-05-22T01:23:10.560Z,14.3558
2023-05-22T01:24:12.790Z,14.3703
2023-05-22T01:25:14.160Z,14.4376
2023-05-22T01:26:15.816Z,14.2690
2023-05-22T01:27:16.967Z,14.1828
2023-05-22T01:28:19.039Z,14.5946
2023-05-22T01:29:20.299Z,14.4327
2023-05-22T01:30:21.698Z,14.1606
2023-05-22T01:31:21.965Z,14.2717
2023-05-22T01:32:23.003Z,14.3536
2023-05-22T01:33:24.809Z,14.0953
2023-05-22T01:34:26.863Z,14.0153
2023-05-22T01:35:28.939Z,14.1961
2023-05-22T01:36:30.809Z,14.3760
2023-05-22T01:37:32.089Z,14.4488
2023-05-22T01:38:33.782Z,14.1541
2023-05-22T01:39:35.038Z,14.3523
2023-05-22T01:40:36.693Z,14.4319
2023-05-22T01:41:38.497Z,13.9455
2023-05-22T01:42:40.335Z,13.8782
2023-05-22T01:43:41.105Z,13.5446
2023-05-22T01:44:40.480Z,13.4703
2023-05-22T01:45:41.047Z,13.7837
2023-05-22T01:46:41.221Z,13.6729
2023-05-22T01:47:42.244Z,13.8073
2023-05-22T01:48:44.872Z,13.8539
2023-05-22T01:49:46.357Z,13.9122
2023-05-22T01:50:48.371Z,13.8772
2023-05-22T01:51:49.576Z,14.2333
2023-05-22T01:52:51.444Z,14.1589
2023-05-22T01:53:53.192Z,13.7469
2023-05-22T01:54:55.326Z,13.6109
2023-05-22T01:57:58.667Z,13.5599
2023-05-22T02:06:08.152Z,13.5700
2023-05-22T02:08:10.036Z,13.1703
2023-05-22T02:09:11.558Z,13.0479
2023-05-22T02:11:12.103Z,13.0684
2023-05-22T02:12:12.769Z,13.1316
2023-05-22T02:13:13.007Z,13.2436
2023-05-22T02:14:14.798Z,12.8855
2023-05-22T02:16:16.681Z,13.0160
2023-05-22T02:18:18.787Z,13.2587
2023-05-22T02:19:20.144Z,13.2774
2023-05-22T02:20:22.953Z,13.3254
2023-05-22T02:21:23.575Z,13.8140
2023-05-22T02:22:24.651Z,13.7795
2023-05-22T02:23:26.053Z,13.3295
2023-05-22T02:24:26.802Z,13.5374
2023-05-22T02:25:28.896Z,13.5610
2023-05-22T02:26:31.106Z,13.5609
2023-05-22T02:27:32.156Z,13.2955
2023-05-22T02:28:34.266Z,13.1800
2023-05-22T02:29:35.295Z,13.2307
2023-05-22T02:30:36.907Z,13.1857
2023-05-22T02:31:38.724Z,13.2468
2023-05-22T02:32:39.467Z,13.5040
2023-05-22T02:33:40.906Z,13.6572
2023-05-22T02:34:42.693Z,13.5088
2023-05-22T02:35:44.186Z,13.6115
2023-05-22T02:36:45.836Z,13.5912
2023-05-22T02:37:47.244Z,13.5263
2023-05-22T02:38:49.003Z,13.5588
2023-05-22T02:39:49.720Z,13.4355
2023-05-22T02:42:53.770Z,12.9254
2023-05-22T02:43:53.734Z,13.0544
2023-05-22T02:44:55.369Z,13.2970
2023-05-22T02:45:57.454Z,13.2512
2023-05-22T02:46:59.075Z,13.6149
2023-05-22T02:48:00.207Z,13.5013
2023-05-22T02:49:01.646Z,13.4969
2023-05-22T02:50:02.117Z,13.3319
2023-05-22T02:51:02.190Z,13.2588
2023-05-22T02:52:04.600Z,13.5151
2023-05-22T02:53:05.564Z,13.9071
2023-05-22T02:54:07.224Z,13.7486
2023-05-22T02:55:08.903Z,13.6965
2023-05-22T02:56:09.077Z,13.6750
2023-05-22T02:57:10.221Z,13.7011
2023-05-22T02:58:25.577Z,13.4258
2023-05-22T02:59:43.065Z,13.3415
2023-05-22T03:00:44.077Z,13.3097
2023-05-22T03:01:46.204Z,13.0328
2023-05-22T03:03:48.670Z,13.1619
2023-05-22T03:04:50.226Z,13.1003
2023-05-22T03:05:50.922Z,13.6228
2023-05-22T03:06:52.220Z,13.7275
2023-05-22T03:07:53.626Z,13.5990
2023-05-22T03:10:54.031Z,13.3125
2023-05-22T03:11:55.233Z,13.3340
2023-05-22T03:12:55.347Z,13.0656
2023-05-22T03:13:57.501Z,12.9485
2023-05-22T03:14:58.948Z,12.7541
2023-05-22T03:16:00.410Z,12.7798
2023-05-22T03:17:02.259Z,12.7470
2023-05-22T03:18:03.621Z,12.6594
2023-05-22T03:19:05.403Z,12.8054
2023-05-22T03:21:06.353Z,12.8783
2023-05-22T03:22:08.281Z,12.9153
2023-05-22T03:23:09.505Z,12.8768
2023-05-22T03:24:10.128Z,12.9350
2023-05-22T03:25:10.808Z,12.8067
2023-05-22T03:26:12.757Z,13.0119
2023-05-22T03:27:13.862Z,13.1169
2023-05-22T03:28:16.047Z,12.9964
2023-05-22T03:29:16.364Z,12.7534
2023-05-22T03:30:16.579Z,12.6610
2023-05-22T03:31:18.753Z,12.7205
2023-05-22T03:32:20.356Z,12.8138
2023-05-22T03:33:20.989Z,12.5860
2023-05-22T03:35:21.871Z,12.4321
2023-05-22T03:36:23.031Z,12.2615
2023-05-22T03:37:23.823Z,12.3416
2023-05-22T03:38:25.756Z,12.8528
2023-05-22T03:39:26.893Z,12.8469
2023-05-22T03:40:28.307Z,12.8797
2023-05-22T03:41:28.717Z,12.7546
2023-05-22T03:42:30.385Z,12.8136
2023-05-22T03:43:31.028Z,12.5952
2023-05-22T03:44:32.129Z,12.4866
2023-05-22T03:45:37.627Z,12.4137
2023-05-22T03:51:40.921Z,12.3520
2023-05-22T03:52:41.310Z,12.4917
2023-05-22T03:53:42.715Z,12.6338
2023-05-22T03:54:44.358Z,12.6714
2023-05-22T03:55:46.309Z,12.6233
2023-05-22T03:56:48.892Z,12.5733
2023-05-22T04:04:55.899Z,13.1587
2023-05-22T04:05:58.219Z,13.1144
2023-05-22T04:06:59.460Z,12.7322
2023-05-22T04:08:01.186Z,12.6270
2023-05-22T04:09:02.158Z,12.6977
2023-05-22T04:10:02.223Z,12.7444
2023-05-22T04:11:02.581Z,12.7652
2023-05-22T04:12:03.822Z,12.6461
2023-05-22T04:13:04.290Z,12.7802
2023-05-22T04:14:07.615Z,12.7283
2023-05-22T04:15:09.033Z,12.9002
2023-05-22T04:16:09.685Z,12.9306
2023-05-22T04:17:12.054Z,12.8541
2023-05-22T04:18:12.428Z,12.8253
2023-05-22T04:19:12.820Z,12.7238
2023-05-22T04:20:15.437Z,12.7714
2023-05-22T04:21:16.386Z,12.8156
2023-05-22T04:22:17.956Z,12.8834
2023-05-22T04:23:20.302Z,12.9862
2023-05-22T04:24:21.151Z,12.8487
2023-05-22T04:25:23.851Z,12.8808
2023-05-22T04:27:25.066Z,12.8843
2023-05-22T04:29:29.197Z,13.0409
2023-05-22T04:30:31.158Z,13.1464
2023-05-22T04:31:33.165Z,13.1996
2023-05-22T04:32:35.210Z,13.1706
2023-05-22T04:40:42.088Z,13.2341
2023-05-22T04:41:44.412Z,13.2083
2023-05-22T04:42:46.245Z,13.0457
2023-05-22T04:43:48.236Z,12.9559
2023-05-22T04:44:49.344Z,12.9807
2023-05-22T04:45:51.745Z,12.9100
2023-05-22T04:51:58.945Z,12.9684
2023-05-22T04:53:00.737Z,13.0547
2023-05-22T04:54:02.713Z,13.1563
2023-05-22T04:55:04.585Z,13.1637
2023-05-22T04:56:03.977Z,13.1660
2023-05-22T04:57:06.177Z,13.2403
2023-05-22T04:59:07.520Z,13.0694
2023-05-22T05:00:08.935Z,13.3189
2023-05-22T05:01:10.329Z,13.5099
2023-05-22T05:02:12.371Z,13.4445
2023-05-22T05:03:13.538Z,13.5213
2023-05-22T05:04:13.863Z,13.5812
2023-05-22T05:05:15.219Z,13.4404
2023-05-22T05:06:16.677Z,13.4501
2023-05-22T05:07:19.051Z,13.8285
2023-05-22T05:08:21.056Z,14.0133
2023-05-22T05:16:29.915Z,15.4428
2023-05-22T05:17:30.165Z,15.4312
2023-05-22T05:18:32.343Z,15.8277
2023-05-22T05:20:33.672Z,15.3835
2023-05-22T05:21:35.460Z,15.4995
2023-05-22T05:22:36.022Z,15.5836
2023-05-22T05:23:38.136Z,15.7755
2023-05-22T05:24:40.110Z,16.1301
2023-05-22T05:25:41.978Z,16.0634
2023-05-22T05:26:43.148Z,16.5910
2023-05-22T05:27:44.457Z,15.9200
2023-05-22T05:28:46.166Z,15.9873
2023-05-22T05:29:46.653Z,15.7750
2023-05-22T05:30:48.014Z,15.8215
2023-05-22T05:31:50.051Z,16.0734
2023-05-22T05:33:51.606Z,16.2448
2023-05-22T05:35:54.401Z,16.4328
2023-05-22T05:36:54.931Z,17.0045
2023-05-22T05:38:57.153Z,17.3260
2023-05-22T05:39:57.428Z,17.4655
2023-05-22T05:40:59.293Z,17.4341
2023-05-22T05:42:00.918Z,17.3115
2023-05-22T05:43:01.897Z,17.3051
2023-05-22T05:45:02.211Z,17.3432
2023-05-22T05:46:02.343Z,16.9374
2023-05-22T05:48:05.137Z,17.9940
2023-05-22T05:49:06.641Z,18.8311
2023-05-22T05:50:07.146Z,18.8117
2023-05-22T05:51:09.355Z,18.1178
2023-05-22T05:52:10.850Z,18.5661
2023-05-22T05:55:14.678Z,18.1397
2023-05-22T05:56:15.084Z,17.9594
2023-05-22T05:57:16.233Z,18.2929
2023-05-22T05:58:17.435Z,17.7446
2023-05-22T05:59:18.947Z,17.6870
2023-05-22T06:00:20.277Z,17.9075
2023-05-22T06:01:22.393Z,17.6803
2023-05-22T06:02:23.982Z,17.5088
2023-05-22T06:03:27.590Z,17.2825
2023-05-22T06:04:25.374Z,17.5280
2023-05-22T06:06:27.931Z,17.8075
2023-05-22T06:07:29.117Z,17.9291
2023-05-22T06:08:30.329Z,17.4836
2023-05-22T06:09:31.771Z,17.4776
2023-05-22T06:10:32.997Z,17.6181
2023-05-22T06:11:34.812Z,17.3330
2023-05-22T06:12:36.249Z,17.4110
2023-05-22T06:13:37.978Z,17.8405
2023-05-22T06:14:39.523Z,17.8322
2023-05-22T06:15:41.448Z,18.0300
2023-05-22T06:16:44.323Z,18.2124
2023-05-22T06:17:44.360Z,18.1768
2023-05-22T06:18:44.445Z,18.1025
2023-05-22T06:19:45.940Z,17.7769
2023-05-22T06:20:47.249Z,17.7616
2023-05-22T06:21:51.410Z,17.5235
2023-05-22T06:22:50.644Z,17.6917
2023-05-22T06:23:52.623Z,18.1185
2023-05-22T06:24:53.824Z,18.2277
2023-05-22T06:25:55.180Z,18.5080
2023-05-22T06:26:57.276Z,18.1127
2023-05-22T06:27:59.501Z,18.9260
2023-05-22T06:29:03.000Z,18.8860
2023-05-22T06:31:03.624Z,18.3262
2023-05-22T06:32:04.530Z,18.2480
2023-05-22T06:33:06.195Z,18.8023
2023-05-22T06:34:07.720Z,18.4386
2023-05-22T06:35:08.230Z,18.4660
2023-05-22T06:36:08.284Z,18.2792
2023-05-22T06:37:10.322Z,18.0658
2023-05-22T06:38:11.575Z,18.1433
2023-05-22T06:42:45.201Z,18.3792
2023-05-22T06:43:46.881Z,18.4609
2023-05-22T06:45:48.913Z,18.3618
2023-05-22T06:48:49.700Z,18.5287
2023-05-22T06:49:50.748Z,18.9052
2023-05-22T06:50:52.728Z,18.9494
2023-05-22T06:51:54.385Z,18.6418
2023-05-22T06:52:55.024Z,18.4389
2023-05-22T06:54:56.404Z,18.9638
2023-05-22T06:55:57.810Z,19.2004
2023-05-22T06:57:59.490Z,18.8161
2023-05-22T06:59:00.825Z,19.1094
2023-05-22T07:00:02.525Z,18.9867
2023-05-22T07:02:05.782Z,19.6094
2023-05-22T07:03:07.293Z,19.0068
2023-05-22T07:04:09.251Z,19.1433
2023-05-22T07:05:09.290Z,18.7055
2023-05-22T07:06:11.577Z,19.0802
2023-05-22T07:07:14.181Z,19.1366
2023-05-22T07:10:17.118Z,19.2713
2023-05-22T07:11:19.119Z,19.3602
2023-05-22T07:12:20.397Z,18.9165
2023-05-22T07:13:21.916Z,19.3126
2023-05-22T07:14:23.757Z,19.2952
2023-05-22T07:15:24.975Z,19.0558
2023-05-22T07:16:26.267Z,19.1152
2023-05-22T07:17:26.969Z,19.2339
2023-05-22T07:20:31.778Z,19.5934
2023-05-22T07:21:33.704Z,19.7132
2023-05-22T07:22:35.194Z,19.7876
2023-05-22T07:23:36.426Z,20.0641
2023-05-22T07:25:38.091Z,19.5143
2023-05-22T07:26:39.031Z,19.8427
2023-05-22T07:27:40.286Z,20.1204
2023-05-22T07:28:41.979Z,20.0315
2023-05-22T07:29:43.152Z,20.3401
2023-05-22T07:30:44.500Z,19.9893
2023-05-22T07:31:45.323Z,20.3534
2023-05-22T07:32:45.390Z,20.2904
2023-05-22T07:33:46.444Z,19.8029
2023-05-22T07:34:48.036Z,20.2754
2023-05-22T07:35:49.453Z,20.7451
2023-05-22T07:36:50.462Z,20.1883
2023-05-22T07:37:52.075Z,20.2425
2023-05-22T07:38:53.884Z,19.9830
2023-05-22T07:39:54.258Z,20.0169
2023-05-22T07:40:56.378Z,19.9978
2023-05-22T07:41:58.812Z,20.3367
2023-05-22T07:42:58.170Z,20.0857
2023-05-22T07:43:58.286Z,20.5135
2023-05-22T07:45:00.130Z,20.4807
2023-05-22T07:46:02.138Z,21.5276
2023-05-22T07:47:02.850Z,20.8952
2023-05-22T07:48:02.933Z,20.4077
2023-05-22T07:49:03.656Z,20.7880
2023-05-22T07:50:04.408Z,20.7134
2023-05-22T07:51:05.853Z,20.4861
2023-05-22T07:52:07.674Z,20.9917
2023-05-22T07:53:08.279Z,20.7186
2023-05-22T07:54:09.598Z,20.7962
2023-05-22T07:55:09.664Z,20.4175
2023-05-22T07:56:11.567Z,20.6971
2023-05-22T07:57:13.622Z,20.4475
2023-05-22T07:58:16.535Z,20.3145
2023-05-22T07:59:17.517Z,20.7083
2023-05-22T08:00:19.687Z,21.1083
2023-05-22T08:01:20.302Z,20.9247
2023-05-22T08:02:22.342Z,21.4888
2023-05-22T08:03:24.378Z,21.5016
2023-05-22T08:04:23.954Z,20.8286
2023-05-22T08:05:24.902Z,21.2032
2023-05-22T08:06:25.350Z,21.7730
2023-05-22T08:07:27.333Z,21.5973
2023-05-22T08:08:31.699Z,22.7135
2023-05-22T08:09:31.226Z,22.8831
2023-05-22T08:10:46.504Z,21.6754
2023-05-22T08:12:04.789Z,21.4496
2023-05-22T08:13:04.868Z,21.6021
2023-05-22T08:14:07.050Z,21.2682
2023-05-22T08:15:08.822Z,21.1633
2023-05-22T08:16:11.000Z,21.0132
2023-05-22T08:17:11.963Z,20.9532
2023-05-22T08:18:14.152Z,21.4097
2023-05-22T08:19:15.710Z,22.6950
2023-05-22T08:20:17.380Z,22.8932
2023-05-22T08:21:19.181Z,22.4817
2023-05-22T08:22:21.134Z,22.4877
2023-05-22T08:23:22.561Z,22.3346
2023-05-22T08:24:23.778Z,21.8604
2023-05-22T08:25:25.422Z,21.7054
2023-05-22T08:26:26.662Z,21.4816
2023-05-22T08:27:28.398Z,21.4715
2023-05-22T08:28:30.006Z,21.8507
2023-05-22T08:29:30.623Z,22.0611
2023-05-22T08:30:30.828Z,22.7533
2023-05-22T08:31:32.334Z,21.6069
2023-05-22T08:32:32.590Z,21.7170
2023-05-22T08:33:34.056Z,21.4393
2023-05-22T08:34:35.457Z,21.6346
2023-05-22T08:35:37.153Z,22.0729
2023-05-22T08:36:38.713Z,22.2270
2023-05-22T08:37:40.011Z,21.9164
2023-05-22T08:38:41.769Z,22.2087
2023-05-22T08:39:43.305Z,21.9824
2023-05-22T08:40:46.466Z,22.4655
2023-05-22T08:41:46.539Z,21.8188
2023-05-22T08:42:48.340Z,21.7590
2023-05-22T08:43:50.186Z,22.1207
2023-05-22T08:44:51.687Z,22.5630
2023-05-22T08:45:53.300Z,22.9889
2023-05-22T08:46:54.957Z,22.7917
2023-05-22T08:47:56.979Z,22.2257
2023-05-22T08:48:59.017Z,22.7044
2023-05-22T08:49:59.781Z,21.8107
2023-05-22T08:51:00.077Z,21.9043
2023-05-22T08:52:01.542Z,22.3016
2023-05-22T08:53:02.647Z,22.6429
2023-05-22T08:54:02.868Z,21.9479
2023-05-22T08:55:04.336Z,22.0555
2023-05-22T08:56:06.144Z,22.3657
2023-05-22T08:57:07.793Z,22.3743
2023-05-22T08:58:08.432Z,22.1910
2023-05-22T08:59:09.770Z,22.2752
2023-05-22T09:00:10.238Z,22.8622
2023-05-22T09:01:12.085Z,22.2673
2023-05-22T09:02:13.924Z,23.0309
2023-05-22T09:03:15.189Z,22.6013
2023-05-22T09:04:17.316Z,22.8991
2023-05-22T09:05:19.106Z,22.4173
2023-05-22T09:06:20.981Z,22.5722
2023-05-22T09:07:22.797Z,22.7956
2023-05-22T09:08:24.843Z,22.9759
2023-05-22T09:09:26.386Z,22.5105
2023-05-22T09:10:26.861Z,22.9114
2023-05-22T09:11:28.670Z,22.9245
2023-05-22T09:12:29.933Z,23.4979
2023-05-22T09:13:31.870Z,22.8813
2023-05-22T09:14:33.181Z,23.3326
2023-05-22T09:15:34.852Z,22.9669
2023-05-22T09:16:35.626Z,23.3134
2023-05-22T09:17:37.874Z,23.4902
2023-05-22T09:18:39.243Z,23.3966
2023-05-22T09:19:40.477Z,23.1390
2023-05-22T09:20:41.419Z,23.0469
2023-05-22T09:21:41.895Z,23.3161
2023-05-22T09:22:43.505Z,22.9412
2023-05-22T09:23:45.310Z,23.1455
2023-05-22T09:24:47.022Z,23.2535
2023-05-22T09:25:48.967Z,23.4508
2023-05-22T09:26:51.024Z,23.5891
2023-05-22T09:27:52.650Z,24.3915
2023-05-22T09:28:53.978Z,24.4871
2023-05-22T09:29:55.809Z,23.9873
2023-05-22T09:30:56.284Z,24.1525
2023-05-22T09:31:56.535Z,23.7046
2023-05-22T09:32:58.682Z,24.4186
2023-05-22T09:33:59.102Z,24.7569
2023-05-22T09:35:00.850Z,24.7521
2023-05-22T09:36:01.878Z,23.7153
2023-05-22T09:37:03.766Z,24.1389
2023-05-22T09:38:04.792Z,23.3883
2023-05-22T09:39:06.995Z,23.8081
2023-05-22T09:40:07.652Z,23.2378
2023-05-22T09:41:09.684Z,23.3413
2023-05-22T09:42:11.213Z,23.7846
2023-05-22T09:43:11.412Z,24.6123
2023-05-22T09:44:12.538Z,25.0656
2023-05-22T09:45:13.904Z,24.3543
2023-05-22T09:46:14.922Z,24.3221
2023-05-22T09:47:16.843Z,24.0109
2023-05-22T09:48:17.161Z,24.2752
2023-05-22T09:49:19.311Z,23.6277
2023-05-22T09:50:21.511Z,23.6804
2023-05-22T09:51:23.261Z,23.5917
2023-05-22T09:52:23.498Z,23.4900
2023-05-22T09:53:25.231Z,23.8271
2023-05-22T09:54:27.065Z,24.0764
2023-05-22T09:55:27.265Z,24.2914
2023-05-22T09:56:38.486Z,24.2282
2023-05-22T09:57:29.586Z,24.0267
2023-05-22T09:58:31.273Z,23.9424
2023-05-22T09:59:32.781Z,24.5954
2023-05-22T10:00:34.501Z,24.5596
2023-05-22T10:01:34.886Z,24.3598
2023-05-22T10:02:35.706Z,25.0977
2023-05-22T10:03:37.446Z,25.8087
2023-05-22T10:04:39.495Z,24.8539
2023-05-22T10:05:39.859Z,24.0156
2023-05-22T10:06:41.620Z,24.1079
2023-05-22T10:07:43.666Z,23.2392
2023-05-22T10:08:44.083Z,23.2843
2023-05-22T10:09:46.135Z,24.1572
2023-05-22T10:10:47.374Z,24.3904
2023-05-22T10:11:49.262Z,24.8320
2023-05-22T10:12:51.127Z,24.2513
2023-05-22T10:13:53.328Z,24.2385
2023-05-22T10:14:54.312Z,23.8677
2023-05-22T10:15:56.193Z,23.7854
2023-05-22T10:16:57.858Z,23.7142
2023-05-22T10:17:59.434Z,24.1019
2023-05-22T10:19:01.092Z,24.2040
2023-05-22T10:20:00.950Z,24.3759
2023-05-22T10:21:02.179Z,24.6201
2023-05-22T10:22:02.434Z,24.7271
2023-05-22T10:23:04.119Z,24.9461
2023-05-22T10:24:04.925Z,25.2963
2023-05-22T10:25:08.516Z,24.7514
2023-05-22T10:26:08.020Z,24.9819
2023-05-22T10:27:09.374Z,24.6320
2023-05-22T10:30:13.506Z,24.3124
2023-05-22T10:31:14.921Z,25.2115
2023-05-22T10:32:16.462Z,25.6253
2023-05-22T10:33:17.006Z,26.4174
2023-05-22T10:34:17.535Z,24.6439
2023-05-22T10:35:19.248Z,24.7707
2023-05-22T10:36:21.279Z,24.2856
2023-05-22T10:37:22.564Z,24.2401
2023-05-22T10:38:24.173Z,25.4171
2023-05-22T10:39:24.650Z,25.4569
2023-05-22T10:40:27.034Z,26.8742
2023-05-22T10:41:28.582Z,26.9089
2023-05-22T10:42:30.328Z,25.6785
2023-05-22T10:43:30.408Z,25.4066
2023-05-22T10:44:30.889Z,26.4151
2023-05-22T10:45:32.146Z,26.0282
2023-05-22T10:46:32.549Z,24.9981
2023-05-22T10:47:32.929Z,24.8675
2023-05-22T10:48:33.993Z,25.3419
2023-05-22T10:49:35.386Z,25.3894
2023-05-22T10:50:36.733Z,24.8937
2023-05-22T10:51:38.512Z,25.6404
2023-05-22T10:52:39.937Z,24.9754
2023-05-22T10:53:41.653Z,25.1466
2023-05-22T10:54:43.107Z,25.3092
2023-05-22T10:55:44.769Z,25.2705
2023-05-22T10:56:46.471Z,25.2345
2023-05-22T10:57:48.115Z,26.1314
2023-05-22T10:58:49.931Z,26.3583
2023-05-22T10:59:51.468Z,26.5309
2023-05-22T11:00:53.130Z,25.8998
2023-05-22T11:01:53.997Z,27.2943
2023-05-22T11:03:00.812Z,27.0406
2023-05-22T11:04:57.385Z,25.6589
2023-05-22T11:05:59.276Z,27.1638
2023-05-22T11:07:00.638Z,28.1112
2023-05-22T11:08:00.904Z,26.3916
2023-05-22T11:09:02.806Z,25.5821
2023-05-22T11:10:03.781Z,25.2639
2023-05-22T11:11:04.025Z,25.0307
2023-05-22T11:12:04.550Z,25.9369
2023-05-22T11:13:05.512Z,25.4232
2023-05-22T11:14:07.458Z,25.7045
2023-05-22T11:15:08.307Z,25.0815
2023-05-22T11:16:09.678Z,26.4740
2023-05-22T11:17:11.527Z,26.1215
2023-05-22T11:18:11.993Z,26.1331
2023-05-22T11:20:13.716Z,25.3044
2023-05-22T11:22:13.851Z,25.3501
2023-05-22T11:23:14.714Z,25.8604
2023-05-22T11:24:16.052Z,25.5400
2023-05-22T11:25:16.194Z,25.6718
2023-05-22T11:26:16.294Z,25.1844
2023-05-22T11:27:16.710Z,25.6537
2023-05-22T11:28:18.282Z,25.4349
2023-05-22T11:29:19.916Z,25.7544
2023-05-22T11:30:21.362Z,25.5075
2023-05-22T11:31:23.316Z,25.3547
2023-05-22T11:32:25.103Z,26.0572
2023-05-22T11:33:26.873Z,26.0721
2023-05-22T11:34:27.780Z,25.4901
2023-05-22T11:35:29.198Z,24.8817
2023-05-22T11:36:30.638Z,25.0770
2023-05-22T11:37:32.288Z,25.7950
2023-05-22T11:38:33.943Z,25.6246
2023-05-22T11:39:34.423Z,25.7014
2023-05-22T11:40:35.642Z,25.6434
2023-05-22T11:41:35.828Z,25.8360
2023-05-22T11:42:36.187Z,25.6560
2023-05-22T11:43:37.259Z,26.4641
2023-05-22T11:44:39.340Z,26.7161
2023-05-22T11:45:40.094Z,26.4277
2023-05-22T11:46:41.735Z,26.4335
2023-05-22T11:47:43.506Z,26.4495
2023-05-22T11:48:45.578Z,26.1851
2023-05-22T11:49:45.922Z,26.5241
2023-05-22T11:50:47.647Z,27.6235
2023-05-22T11:51:48.652Z,27.3036
2023-05-22T11:52:49.604Z,26.9843
2023-05-22T11:53:50.374Z,27.7218
2023-05-22T11:54:51.678Z,26.5977
2023-05-22T11:55:52.784Z,26.3500
2023-05-22T11:56:54.493Z,25.9118
2023-05-22T11:57:56.013Z,26.2558
2023-05-22T11:58:56.202Z,25.9264
2023-05-22T11:59:56.948Z,26.6613
2023-05-22T12:00:57.060Z,26.6984
2023-05-22T12:01:58.063Z,26.8269
2023-05-22T12:02:59.404Z,26.1796
2023-05-22T12:04:00.035Z,26.0628
2023-05-22T12:05:01.338Z,25.9509
2023-05-22T12:06:03.146Z,26.2686
2023-05-22T12:07:04.211Z,26.7305
2023-05-22T12:08:04.823Z,25.9881
2023-05-22T12:09:06.810Z,26.8975
2023-05-22T12:10:08.954Z,27.2029
2023-05-22T12:11:10.356Z,26.7031
2023-05-22T12:12:10.992Z,27.1271
2023-05-22T12:13:11.002Z,27.3278
2023-05-22T12:14:11.720Z,27.1044
2023-05-22T12:15:13.692Z,26.9772
2023-05-22T12:16:14.289Z,27.0320
2023-05-22T12:17:14.831Z,26.6852
2023-05-22T12:18:14.835Z,27.6396
2023-05-22T12:19:16.068Z,27.5289
2023-05-22T12:20:17.949Z,28.6361
2023-05-22T12:21:18.616Z,28.7010
2023-05-22T12:22:19.732Z,27.9190
2023-05-22T12:23:20.475Z,28.0235
2023-05-22T12:24:21.274Z,26.8478
2023-05-22T12:25:21.337Z,27.3556
2023-05-22T12:26:23.501Z,28.3353
2023-05-22T12:27:24.676Z,28.9325
2023-05-22T12:28:26.681Z,27.1709
2023-05-22T12:29:28.585Z,27.1863
2023-05-22T12:30:30.472Z,28.2295
2023-05-22T12:31:32.604Z,27.8541
2023-05-22T12:32:32.701Z,26.7994
2023-05-22T12:33:34.857Z,27.5701
2023-05-22T12:34:36.469Z,26.3013
2023-05-22T12:35:38.073Z,26.4077
2023-05-22T12:36:38.340Z,26.2971
2023-05-22T12:37:40.413Z,26.7876
2023-05-22T12:38:40.946Z,26.4128
2023-05-22T12:39:41.912Z,26.6364
2023-05-22T12:40:43.694Z,27.8696
2023-05-22T12:41:44.282Z,28.1374
2023-05-22T12:42:45.356Z,26.7370
2023-05-22T12:43:47.397Z,27.1496
2023-05-22T12:44:49.009Z,28.5032
2023-05-22T12:45:50.657Z,28.2324
2023-05-22T12:46:52.186Z,27.8064
2023-05-22T12:47:53.297Z,26.8032
2023-05-22T12:48:55.211Z,25.8809
2023-05-22T12:49:56.615Z,25.2032
2023-05-22T12:50:57.016Z,25.2152
2023-05-22T12:51:57.716Z,24.5998
2023-05-22T12:52:57.812Z,24.5922
2023-05-22T12:53:58.945Z,24.9630
2023-05-22T12:55:00.377Z,26.5244
2023-05-22T12:56:00.670Z,26.7928
2023-05-22T12:57:02.716Z,26.8769
2023-05-22T12:58:02.736Z,27.0107
2023-05-22T12:59:04.835Z,26.7058
2023-05-22T13:00:05.082Z,26.8351
2023-05-22T13:01:06.554Z,26.9084
2023-05-22T13:02:07.948Z,26.1081
2023-05-22T13:03:09.573Z,26.4189
2023-05-22T13:04:11.042Z,27.7522
2023-05-22T13:05:11.517Z,27.7117
2023-05-22T13:06:13.151Z,27.2688
2023-05-22T13:07:14.181Z,27.1613
2023-05-22T13:08:14.370Z,26.4471
2023-05-22T13:09:14.771Z,26.8794
2023-05-22T13:10:16.096Z,26.6448
2023-05-22T13:11:17.347Z,27.6366
2023-05-22T13:12:17.832Z,27.9780
2023-05-22T13:13:18.770Z,27.2579
2023-05-22T13:14:20.545Z,28.4912
2023-05-22T13:15:22.109Z,27.2307
2023-05-22T13:16:22.918Z,26.8878
2023-05-22T13:17:24.520Z,27.8204
2023-05-22T13:18:25.088Z,27.7916
2023-05-22T13:19:27.347Z,27.3772
2023-05-22T13:20:27.912Z,28.4339
2023-05-22T13:21:29.079Z,27.7958
2023-05-22T13:22:29.965Z,27.4405
2023-05-22T13:24:30.283Z,27.5899
2023-05-22T13:25:30.937Z,27.7490
2023-05-22T13:26:31.173Z,27.9228
2023-05-22T13:27:33.942Z,26.8968
2023-05-22T13:28:33.939Z,26.8186
2023-05-22T13:29:35.336Z,26.9709
2023-05-22T13:30:36.836Z,27.4765
2023-05-22T13:33:41.087Z,27.2667
2023-05-22T13:35:42.140Z,27.4521
2023-05-22T13:36:43.379Z,27.9726
2023-05-22T13:37:45.492Z,28.3242
2023-05-22T13:39:45.659Z,27.2684
2023-05-22T13:40:48.194Z,27.4224
2023-05-22T13:41:45.955Z,26.8031
2023-05-22T13:42:46.128Z,25.8081
2023-05-22T13:43:47.550Z,26.3769
2023-05-22T13:45:48.958Z,25.3701
2023-05-22T13:46:50.435Z,25.2163
2023-05-22T13:47:51.839Z,25.1455
2023-05-22T13:48:53.579Z,24.6017
2023-05-22T13:49:54.149Z,24.7424
2023-05-22T13:50:55.565Z,24.8285
2023-05-22T13:51:57.727Z,25.4323
2023-05-22T13:52:57.910Z,27.6578
2023-05-22T13:53:58.171Z,28.1266
2023-05-22T13:54:59.697Z,28.0988
2023-05-22T13:56:01.207Z,27.3677
2023-05-22T13:57:02.868Z,27.3012
2023-05-22T13:58:04.263Z,27.6028
2023-05-22T13:59:09.005Z,28.1116
2023-05-22T14:00:06.482Z,28.6202
2023-05-22T14:01:06.653Z,29.3003
2023-05-22T14:02:07.917Z,29.0233
2023-05-22T14:03:09.088Z,30.3073
2023-05-22T14:04:09.073Z,27.9343
2023-05-22T14:05:09.949Z,27.2152
2023-05-22T14:06:12.613Z,27.1310
2023-05-22T14:07:13.636Z,28.0515
2023-05-22T14:08:15.515Z,28.7461
2023-05-22T14:09:17.008Z,29.6340
2023-05-22T14:10:18.430Z,27.1805
2023-05-22T14:11:20.216Z,27.1960
2023-05-22T14:12:20.928Z,26.3020
2023-05-22T14:13:22.378Z,25.8502
2023-05-22T14:14:24.564Z,25.4832
2023-05-22T14:15:26.503Z,25.2669
2023-05-22T14:16:27.877Z,25.3780
2023-05-22T14:17:29.179Z,26.6604
2023-05-22T14:18:30.569Z,26.6198
2023-05-22T14:19:32.987Z,27.1640
2023-05-22T14:20:33.316Z,27.2392
2023-05-22T14:21:35.348Z,27.8420
2023-05-22T14:22:47.959Z,27.5701
2023-05-22T14:25:06.713Z,27.9054
2023-05-22T14:26:08.569Z,28.0500
2023-05-22T14:27:10.849Z,25.7363